Time;durP1;ratioP1;P1;durP2;ratioP2;P2;SDS_P1;SDS_P2;PMS_P1;PMS_P2;Temp;Humidity;BMP_temperature;BMP_pressure;BME280_temperature;BME280_humidity;BME280_pressure;Samples;Min_cycle;Max_cycle;Signal;HPM_P1;HPM_P2
2021/01/05 00:01:07;;;;;;;8.70;6.17;;;2.10;51.50;;;;;;4994894;28;36781;-77
2021/01/05 00:03:34;;;;;;;10.27;6.63;;;2.30;51.50;;;;;;5009957;28;36904;-77
2021/01/05 00:06:01;;;;;;;9.77;6.40;;;2.30;51.20;;;;;;5011595;28;39355;-77
2021/01/05 00:08:28;;;;;;;9.27;6.33;;;2.30;50.90;;;;;;4994093;28;38334;-78
2021/01/05 00:10:55;;;;;;;8.70;6.23;;;2.40;51.00;;;;;;5001952;28;37888;-77
2021/01/05 00:13:24;;;;;;;10.40;6.53;;;2.40;50.70;;;;;;5011308;28;37819;-77
2021/01/05 00:15:52;;;;;;;11.70;7.40;;;2.50;50.80;;;;;;4999581;28;39623;-76
2021/01/05 00:18:20;;;;;;;8.83;6.10;;;2.40;50.70;;;;;;5004644;28;38918;-78
2021/01/05 00:20:47;;;;;;;12.80;7.57;;;2.40;50.70;;;;;;4995875;28;37824;-78
2021/01/05 00:23:15;;;;;;;9.90;7.30;;;2.40;50.90;;;;;;5001936;28;37189;-78
2021/01/05 00:25:46;;;;;;;10.83;7.07;;;2.40;51.00;;;;;;4997830;28;39323;-77
2021/01/05 00:28:13;;;;;;;10.63;6.43;;;2.40;51.10;;;;;;4992867;28;38419;-76
2021/01/05 00:30:41;;;;;;;10.70;6.50;;;2.40;51.10;;;;;;5013477;28;37729;-75
2021/01/05 00:33:09;;;;;;;12.70;7.37;;;2.40;51.00;;;;;;5010026;28;36836;-76
2021/01/05 00:35:38;;;;;;;8.67;6.47;;;2.40;51.00;;;;;;5012848;28;40259;-76
2021/01/05 00:38:08;;;;;;;10.10;6.20;;;2.40;51.00;;;;;;5010539;28;38693;-75
2021/01/05 00:40:38;;;;;;;10.50;7.33;;;2.40;50.90;;;;;;5009137;28;37989;-75
2021/01/05 00:43:06;;;;;;;9.43;6.20;;;2.30;50.90;;;;;;5009905;28;36757;-75
2021/01/05 00:45:35;;;;;;;9.70;7.13;;;2.40;50.90;;;;;;5006354;28;39439;-75
2021/01/05 00:48:07;;;;;;;11.20;6.20;;;2.40;50.90;;;;;;4994195;28;38023;-76
2021/01/05 00:50:36;;;;;;;10.97;7.30;;;2.30;51.00;;;;;;4994154;28;38184;-75
2021/01/05 00:53:03;;;;;;;10.53;7.00;;;2.30;51.20;;;;;;5004930;28;36935;-75
2021/01/05 00:55:30;;;;;;;11.87;8.03;;;2.30;51.30;;;;;;5011633;28;38852;-76
2021/01/05 00:58:00;;;;;;;11.07;6.37;;;2.30;51.50;;;;;;5013706;28;39155;-75
2021/01/05 01:00:31;;;;;;;11.90;7.80;;;2.40;51.40;;;;;;4994256;28;38036;-75
2021/01/05 01:03:12;;;;;;;12.87;7.27;;;2.40;51.40;;;;;;4992688;28;36082;-75
2021/01/05 01:05:41;;;;;;;11.60;8.03;;;2.50;51.30;;;;;;4994594;28;39523;-75
2021/01/05 01:08:11;;;;;;;12.07;7.97;;;2.40;51.30;;;;;;4991432;28;36405;-74
2021/01/05 01:10:45;;;;;;;10.73;7.60;;;2.30;51.50;;;;;;5002533;28;37504;-75
2021/01/05 01:13:14;;;;;;;12.00;7.83;;;2.30;51.60;;;;;;4990340;28;34991;-75
2021/01/05 01:15:43;;;;;;;11.00;7.47;;;2.20;51.90;;;;;;4977526;28;38583;-76
2021/01/05 01:18:10;;;;;;;12.30;8.57;;;2.20;52.00;;;;;;5003810;28;38854;-76
2021/01/05 01:20:42;;;;;;;11.17;7.63;;;2.20;52.00;;;;;;4991792;28;37864;-76
2021/01/05 01:23:11;;;;;;;11.63;7.43;;;2.30;52.10;;;;;;4987364;28;36145;-76
2021/01/05 01:25:42;;;;;;;12.20;7.60;;;2.30;52.10;;;;;;4984790;28;38340;-76
2021/01/05 01:28:11;;;;;;;14.90;8.03;;;2.30;52.10;;;;;;5012125;28;39015;-76
2021/01/05 01:30:43;;;;;;;12.57;8.17;;;2.30;52.00;;;;;;4991152;28;37622;-76
2021/01/05 01:33:14;;;;;;;13.93;8.53;;;2.30;51.90;;;;;;4987910;28;35953;-75
2021/01/05 01:35:42;;;;;;;12.23;8.03;;;2.30;51.90;;;;;;4993256;28;38635;-77
2021/01/05 01:38:12;;;;;;;13.40;8.23;;;2.30;51.80;;;;;;5003882;28;39257;-75
2021/01/05 01:40:49;;;;;;;11.03;7.73;;;2.40;51.60;;;;;;4991335;28;36709;-76
2021/01/05 01:43:27;;;;;;;11.53;8.43;;;2.40;51.70;;;;;;4990690;28;36282;-76
2021/01/05 01:45:57;;;;;;;12.90;7.77;;;2.30;51.70;;;;;;4995840;28;39416;-76
2021/01/05 01:48:31;;;;;;;11.20;7.80;;;2.30;51.90;;;;;;4990403;28;37691;-76
2021/01/05 01:51:01;;;;;;;12.53;8.53;;;2.30;52.10;;;;;;5004132;28;38521;-75
2021/01/05 01:54:05;;;;;;;12.40;8.03;;;2.40;52.20;;;;;;4995086;28;36736;-76
2021/01/05 01:56:57;;;;;;;12.87;8.10;;;2.40;52.20;;;;;;5000427;28;38663;-75
2021/01/05 01:59:58;;;;;;;14.50;8.80;;;2.30;51.70;;;;;;5000304;28;37684;-75
2021/01/05 02:03:17;;;;;;;11.93;7.90;;;2.30;51.60;;;;;;5006147;28;38484;-75
2021/01/05 02:06:14;;;;;;;12.97;8.20;;;2.30;51.70;;;;;;4991134;28;35907;-75
2021/01/05 02:08:54;;;;;;;12.60;7.87;;;2.40;51.80;;;;;;4992886;28;38500;-76
2021/01/05 02:11:49;;;;;;;13.40;7.70;;;2.40;51.70;;;;;;4984759;28;37734;-76
2021/01/05 02:14:53;;;;;;;12.77;8.17;;;2.40;51.50;;;;;;5006263;28;37754;-76
2021/01/05 02:17:40;;;;;;;13.10;8.00;;;2.40;51.70;;;;;;5004151;28;37343;-76
2021/01/05 02:20:13;;;;;;;14.47;8.50;;;2.40;51.90;;;;;;4994010;28;38489;-76
2021/01/05 02:22:51;;;;;;;12.03;7.83;;;2.40;52.20;;;;;;5008980;28;38701;-76
2021/01/05 02:25:28;;;;;;;12.07;8.10;;;2.40;51.90;;;;;;4991706;28;36842;-75
2021/01/05 02:28:03;;;;;;;11.50;7.70;;;2.40;51.90;;;;;;4992128;28;38295;-76
2021/01/05 02:30:39;;;;;;;15.13;7.90;;;2.40;52.00;;;;;;5008360;28;38239;-76
2021/01/05 02:33:22;;;;;;;12.43;7.37;;;2.50;52.20;;;;;;4991230;28;38124;-76
2021/01/05 02:36:17;;;;;;;15.50;8.13;;;2.50;52.00;;;;;;5004685;28;37502;-75
2021/01/05 02:39:29;;;;;;;12.40;7.40;;;2.50;52.00;;;;;;5003392;28;37491;-75
2021/01/05 02:42:44;;;;;;;14.10;8.60;;;2.50;51.80;;;;;;5006359;28;39891;-76
2021/01/05 02:45:35;;;;;;;12.13;7.87;;;2.40;51.90;;;;;;5004320;28;39638;-76
2021/01/05 02:48:43;;;;;;;12.20;8.27;;;2.30;52.10;;;;;;5003693;28;38228;-76
2021/01/05 02:52:06;;;;;;;14.87;8.27;;;2.40;52.20;;;;;;5005278;28;37473;-76
2021/01/05 02:55:27;;;;;;;11.63;7.83;;;2.30;52.10;;;;;;4947522;28;41305;-76
2021/01/05 02:58:41;;;;;;;13.50;8.60;;;2.40;52.20;;;;;;5007711;28;39537;-75
2021/01/05 03:02:00;;;;;;;13.53;8.40;;;2.40;52.20;;;;;;5009262;28;38798;-76
2021/01/05 03:04:46;;;;;;;14.20;9.00;;;2.30;52.10;;;;;;5008800;28;37426;-76
2021/01/05 03:07:32;;;;;;;13.70;9.10;;;2.40;52.20;;;;;;4999550;28;39959;-77
2021/01/05 03:10:29;;;;;;;13.50;8.77;;;2.40;52.30;;;;;;5004936;28;40453;-77
2021/01/05 03:13:43;;;;;;;12.00;8.17;;;2.40;52.30;;;;;;5003515;28;38734;-76
2021/01/05 03:16:32;;;;;;;13.43;8.87;;;2.30;52.30;;;;;;4999974;28;37808;-76
2021/01/05 03:19:39;;;;;;;15.17;9.17;;;2.30;52.50;;;;;;5008146;28;40402;-76
2021/01/05 03:22:31;;;;;;;13.20;8.30;;;2.30;52.40;;;;;;5006978;28;39592;-76
2021/01/05 03:25:18;;;;;;;14.37;8.50;;;2.40;52.50;;;;;;5009934;28;39769;-76
2021/01/05 03:28:07;;;;;;;17.50;9.77;;;2.40;52.20;;;;;;5009409;28;38957;-76
2021/01/05 03:30:56;;;;;;;14.13;9.40;;;2.30;52.30;;;;;;5003209;28;40889;-76
2021/01/05 03:33:42;;;;;;;15.60;8.40;;;2.30;52.60;;;;;;5010997;28;39405;-76
2021/01/05 03:36:28;;;;;;;15.17;9.23;;;2.30;52.60;;;;;;5009884;28;38504;-76
2021/01/05 03:39:14;;;;;;;12.43;8.50;;;2.30;52.60;;;;;;5009199;28;38624;-76
2021/01/05 03:42:00;;;;;;;16.53;9.53;;;2.30;52.70;;;;;;5004730;28;41057;-76
2021/01/05 03:44:46;;;;;;;15.07;8.73;;;2.30;52.70;;;;;;5007274;28;39465;-76
2021/01/05 03:47:31;;;;;;;15.60;9.23;;;2.40;52.60;;;;;;5009316;28;38638;-76
2021/01/05 03:50:17;;;;;;;15.77;9.27;;;2.30;52.60;;;;;;5002746;28;38516;-76
2021/01/05 03:53:03;;;;;;;16.40;9.97;;;2.30;52.90;;;;;;5004638;28;41183;-76
2021/01/05 03:55:49;;;;;;;15.37;8.93;;;2.30;52.90;;;;;;5010085;28;39769;-77
2021/01/05 03:58:35;;;;;;;14.77;9.10;;;2.30;53.00;;;;;;5008303;28;38892;-77
2021/01/05 04:01:20;;;;;;;15.23;9.53;;;2.30;53.00;;;;;;5019105;28;37500;-77
2021/01/05 04:03:49;;;;;;;13.97;9.00;;;2.40;53.00;;;;;;4996954;28;38386;-76
2021/01/05 04:06:15;;;;;;;14.53;9.33;;;2.40;53.00;;;;;;4995108;28;37996;-76
2021/01/05 04:08:42;;;;;;;15.50;9.70;;;2.50;53.00;;;;;;5012769;28;38730;-77
2021/01/05 04:11:15;;;;;;;16.97;9.20;;;2.50;53.00;;;;;;5013953;28;37919;-76
2021/01/05 04:13:43;;;;;;;15.43;9.27;;;2.50;52.70;;;;;;5012256;28;39667;-76
2021/01/05 04:16:10;;;;;;;14.20;9.40;;;2.60;52.70;;;;;;5010967;28;38785;-76
2021/01/05 04:18:36;;;;;;;16.00;10.40;;;2.60;52.70;;;;;;5014826;28;37698;-76
2021/01/05 04:21:04;;;;;;;16.17;10.90;;;2.60;52.70;;;;;;5008299;28;38267;-76
2021/01/05 04:23:31;;;;;;;15.00;8.87;;;2.70;52.70;;;;;;5017785;28;40460;-76
2021/01/05 04:25:58;;;;;;;16.07;9.80;;;2.60;52.40;;;;;;4994367;28;37428;-77
2021/01/05 04:28:25;;;;;;;14.40;9.90;;;2.60;52.40;;;;;;5018695;28;38107;-76
2021/01/05 04:30:52;;;;;;;16.07;9.80;;;2.60;52.70;;;;;;5024606;28;36788;-76
2021/01/05 04:33:19;;;;;;;15.87;9.43;;;2.60;52.90;;;;;;4996287;28;39351;-76
2021/01/05 04:35:46;;;;;;;16.50;9.50;;;2.60;52.80;;;;;;5014463;28;39615;-77
2021/01/05 04:38:14;;;;;;;14.87;8.97;;;2.60;52.80;;;;;;5017083;28;38240;-77
2021/01/05 04:40:43;;;;;;;18.30;10.27;;;2.60;52.80;;;;;;5010403;28;38046;-77
2021/01/05 04:43:21;;;;;;;15.43;9.40;;;2.60;53.00;;;;;;4998891;28;38393;-77
2021/01/05 04:46:00;;;;;;;16.70;8.53;;;2.60;52.90;;;;;;5008804;28;39722;-77
2021/01/05 04:48:40;;;;;;;15.17;10.03;;;2.60;52.90;;;;;;5025556;28;38329;-77
2021/01/05 04:51:20;;;;;;;15.13;9.23;;;2.60;53.50;;;;;;5022116;28;36813;-76
2021/01/05 04:53:52;;;;;;;17.00;10.60;;;2.60;52.90;;;;;;5017001;28;39646;-77
2021/01/05 04:56:26;;;;;;;15.67;9.73;;;2.70;52.90;;;;;;5021252;28;38638;-76
2021/01/05 04:58:57;;;;;;;16.50;10.00;;;2.70;53.00;;;;;;5022984;28;38828;-77
2021/01/05 05:01:27;;;;;;;16.80;10.10;;;2.70;53.10;;;;;;5018356;28;37326;-77
2021/01/05 05:04:10;;;;;;;18.43;10.10;;;2.70;53.00;;;;;;4972999;28;38881;-76
2021/01/05 05:06:40;;;;;;;16.83;9.80;;;2.70;53.00;;;;;;5020687;28;39892;-76
2021/01/05 05:09:26;;;;;;;17.13;10.57;;;2.70;53.30;;;;;;5012577;28;36514;-76
2021/01/05 05:12:18;;;;;;;15.67;9.70;;;2.70;53.00;;;;;;5014805;28;38083;-77
2021/01/05 05:14:58;;;;;;;21.13;10.80;;;2.70;53.10;;;;;;4999358;28;38793;-76
2021/01/05 05:17:56;;;;;;;17.03;10.00;;;2.70;53.30;;;;;;5010664;28;39000;-76
2021/01/05 05:20:55;;;;;;;20.87;11.47;;;2.70;53.30;;;;;;5018338;28;37975;-76
2021/01/05 05:23:37;;;;;;;19.80;10.57;;;2.70;53.40;;;;;;4992675;28;37231;-76
2021/01/05 05:26:08;;;;;;;16.70;10.37;;;2.70;53.30;;;;;;5011319;28;40293;-76
2021/01/05 05:28:44;;;;;;;19.47;11.40;;;2.70;53.40;;;;;;4995443;28;39149;-76
2021/01/05 05:31:18;;;;;;;15.73;9.87;;;2.70;53.50;;;;;;4995419;28;36459;-76
2021/01/05 05:33:48;;;;;;;18.10;11.13;;;2.70;53.50;;;;;;5009015;28;38500;-77
2021/01/05 05:36:35;;;;;;;23.03;12.67;;;2.70;53.60;;;;;;5024539;28;40313;-77
2021/01/05 05:39:29;;;;;;;20.40;11.10;;;2.70;53.50;;;;;;5010080;28;39300;-77
2021/01/05 05:42:04;;;;;;;20.80;11.33;;;2.70;53.50;;;;;;4998511;28;37721;-76
2021/01/05 05:44:40;;;;;;;23.10;11.60;;;2.70;53.50;;;;;;5023734;28;37184;-76
2021/01/05 05:47:12;;;;;;;20.07;10.47;;;2.70;53.60;;;;;;5013043;28;39375;-77
2021/01/05 05:49:52;;;;;;;17.33;10.23;;;2.60;53.80;;;;;;5001115;28;37799;-77
2021/01/05 05:52:27;;;;;;;20.63;10.50;;;2.60;53.90;;;;;;5026986;28;37803;-76
2021/01/05 05:54:56;;;;;;;21.40;12.30;;;2.60;54.00;;;;;;5016489;28;37290;-77
2021/01/05 05:57:36;;;;;;;22.13;11.63;;;2.60;54.10;;;;;;5022336;28;40466;-77
2021/01/05 06:00:33;;;;;;;21.97;12.27;;;2.70;54.20;;;;;;5016413;28;39204;-77
2021/01/05 06:03:01;;;;;;;18.97;11.90;;;2.70;54.10;;;;;;4974680;28;38871;-76
2021/01/05 06:05:31;;;;;;;19.37;11.10;;;2.70;54.10;;;;;;5037049;28;37777;-77
2021/01/05 06:07:58;;;;;;;20.50;11.20;;;2.70;54.10;;;;;;5025359;28;40986;-77
2021/01/05 06:10:26;;;;;;;19.13;11.83;;;2.70;54.00;;;;;;5035670;28;39573;-77
2021/01/05 06:12:54;;;;;;;18.63;11.87;;;2.70;54.10;;;;;;5010526;28;37296;-77
2021/01/05 06:15:21;;;;;;;22.13;12.27;;;2.70;54.10;;;;;;5001040;28;36997;-77
2021/01/05 06:17:48;;;;;;;22.20;11.43;;;2.70;54.20;;;;;;4993851;28;38054;-76
2021/01/05 06:20:16;;;;;;;19.63;11.53;;;2.70;54.10;;;;;;5022440;28;38822;-76
2021/01/05 06:22:44;;;;;;;19.40;12.47;;;2.80;54.10;;;;;;5015225;28;37888;-76
2021/01/05 06:25:12;;;;;;;21.57;11.60;;;2.80;54.00;;;;;;5020843;28;38530;-76
2021/01/05 06:27:39;;;;;;;20.67;11.93;;;2.80;54.10;;;;;;5015730;28;40359;-77
2021/01/05 06:30:08;;;;;;;20.87;12.37;;;2.80;54.20;;;;;;5004522;28;39418;-77
2021/01/05 06:32:35;;;;;;;20.33;11.77;;;2.80;54.20;;;;;;5019324;28;37872;-77
2021/01/05 06:35:03;;;;;;;21.30;12.40;;;2.90;54.20;;;;;;5014430;28;37287;-77
2021/01/05 06:37:31;;;;;;;21.27;13.40;;;2.90;54.80;;;;;;5005403;28;39332;-76
2021/01/05 06:39:59;;;;;;;20.30;12.13;;;2.80;54.00;;;;;;4996830;28;38961;-77
2021/01/05 06:42:26;;;;;;;21.60;13.00;;;2.80;54.20;;;;;;5005778;28;37999;-76
2021/01/05 06:44:53;;;;;;;22.33;12.40;;;2.90;54.20;;;;;;5010809;28;37996;-76
2021/01/05 06:47:20;;;;;;;22.40;12.63;;;2.90;54.10;;;;;;5013584;28;40000;-76
2021/01/05 06:49:48;;;;;;;15.07;10.33;;;2.90;54.10;;;;;;5014113;28;39168;-76
2021/01/05 06:52:17;;;;;;;19.60;10.93;;;2.90;54.20;;;;;;5012783;28;38309;-77
2021/01/05 06:54:44;;;;;;;20.37;11.10;;;2.90;54.20;;;;;;4995751;28;36598;-77
2021/01/05 06:57:12;;;;;;;21.47;11.83;;;2.80;54.10;;;;;;5014180;28;40102;-76
2021/01/05 06:59:39;;;;;;;21.40;12.93;;;2.90;54.20;;;;;;5008156;28;39163;-76
2021/01/05 07:02:07;;;;;;;20.20;12.10;;;2.80;54.10;;;;;;5010539;28;37858;-76
2021/01/05 07:04:36;;;;;;;20.50;13.27;;;2.80;54.20;;;;;;5018898;28;37636;-77
2021/01/05 07:07:05;;;;;;;22.47;11.73;;;2.80;54.40;;;;;;5007027;28;40408;-76
2021/01/05 07:09:32;;;;;;;20.43;12.13;;;2.80;54.40;;;;;;4994856;28;37392;-76
2021/01/05 07:11:59;;;;;;;19.80;11.30;;;2.90;54.40;;;;;;5009732;28;38333;-77
2021/01/05 07:14:28;;;;;;;22.50;12.50;;;2.80;54.50;;;;;;5011750;28;35908;-76
2021/01/05 07:16:55;;;;;;;20.73;12.07;;;2.90;54.80;;;;;;5008346;28;39812;-76
2021/01/05 07:19:22;;;;;;;19.80;11.63;;;2.80;55.00;;;;;;5010068;28;39803;-76
2021/01/05 07:21:49;;;;;;;21.10;12.47;;;2.80;55.20;;;;;;4993969;28;36988;-77
2021/01/05 07:24:16;;;;;;;23.83;12.63;;;2.80;55.50;;;;;;5004833;28;37135;-77
2021/01/05 07:26:46;;;;;;;21.27;12.00;;;2.80;55.50;;;;;;5006025;28;39528;-77
2021/01/05 07:29:14;;;;;;;23.97;12.50;;;2.80;55.80;;;;;;5008293;28;39035;-77
2021/01/05 07:31:42;;;;;;;19.03;11.67;;;2.80;55.60;;;;;;5007730;28;38131;-77
2021/01/05 07:34:10;;;;;;;16.90;11.30;;;2.80;55.80;;;;;;4995603;28;35978;-76
2021/01/05 07:36:40;;;;;;;18.00;10.40;;;2.80;55.80;;;;;;5005562;28;39673;-77
2021/01/05 07:39:20;;;;;;;21.53;11.97;;;2.80;55.90;;;;;;5015088;28;38225;-76
2021/01/05 07:41:49;;;;;;;20.93;12.20;;;2.80;55.90;;;;;;5009914;28;38247;-77
2021/01/05 07:44:16;;;;;;;19.53;11.90;;;2.80;56.00;;;;;;4995081;28;36402;-77
2021/01/05 07:46:45;;;;;;;17.77;12.37;;;2.80;56.20;;;;;;5011767;28;39375;-77
2021/01/05 07:49:12;;;;;;;20.10;12.47;;;2.80;56.30;;;;;;5010445;28;39124;-76
2021/01/05 07:51:45;;;;;;;25.23;13.80;;;2.80;56.50;;;;;;5007648;28;38119;-77
2021/01/05 07:54:13;;;;;;;21.30;12.67;;;2.80;56.80;;;;;;5010063;28;38450;-76
2021/01/05 07:56:44;;;;;;;23.63;14.20;;;2.80;56.70;;;;;;4994400;28;38145;-77
2021/01/05 07:59:11;;;;;;;21.57;13.30;;;2.90;56.80;;;;;;5018377;28;39764;-77
2021/01/05 08:01:38;;;;;;;22.10;14.07;;;2.90;56.80;;;;;;5000527;28;36650;-77
2021/01/05 08:04:06;;;;;;;28.40;16.20;;;2.90;56.80;;;;;;5011396;28;37739;-76
2021/01/05 08:06:33;;;;;;;23.33;14.73;;;2.90;56.90;;;;;;4997456;28;40107;-77
2021/01/05 08:09:00;;;;;;;30.50;16.70;;;2.90;57.30;;;;;;5013754;28;38841;-77
2021/01/05 08:11:35;;;;;;;25.33;14.83;;;2.90;57.50;;;;;;5020363;28;38673;-77
2021/01/05 08:14:03;;;;;;;25.80;15.57;;;2.90;58.10;;;;;;5008471;28;37279;-77
2021/01/05 08:16:33;;;;;;;27.87;14.93;;;2.90;58.20;;;;;;5008278;28;39323;-76
2021/01/05 08:19:00;;;;;;;77.37;42.63;;;2.90;58.30;;;;;;4999045;28;37780;-77
2021/01/05 08:21:28;;;;;;;39.13;23.17;;;2.90;58.60;;;;;;4995581;28;38999;-76
2021/01/05 08:23:55;;;;;;;32.50;18.07;;;2.90;58.80;;;;;;4995793;28;36719;-77
2021/01/05 08:26:22;;;;;;;27.23;15.40;;;2.90;58.90;;;;;;4994052;28;38954;-76
2021/01/05 08:28:49;;;;;;;28.37;15.90;;;2.90;59.10;;;;;;5013156;28;39228;-76
2021/01/05 08:31:17;;;;;;;28.03;15.70;;;2.90;59.30;;;;;;5010539;28;39059;-78
2021/01/05 08:33:45;;;;;;;26.73;16.20;;;3.00;59.80;;;;;;5014352;28;37301;-77
2021/01/05 08:36:12;;;;;;;26.90;16.50;;;2.90;59.20;;;;;;4999201;28;38538;-76
2021/01/05 08:38:41;;;;;;;25.37;15.17;;;2.80;59.90;;;;;;5017268;28;38899;-76
2021/01/05 08:41:08;;;;;;;25.53;15.23;;;2.70;59.00;;;;;;5017006;28;38288;-76
2021/01/05 08:43:35;;;;;;;21.13;12.70;;;2.70;59.40;;;;;;5013241;28;38301;-77
2021/01/05 08:46:01;;;;;;;23.27;13.97;;;2.70;59.50;;;;;;5012539;28;39333;-77
2021/01/05 08:48:31;;;;;;;23.70;13.23;;;2.70;59.60;;;;;;5017212;28;40096;-75
2021/01/05 08:50:58;;;;;;;25.60;15.20;;;2.70;59.10;;;;;;5010493;28;37939;-74
2021/01/05 08:53:25;;;;;;;22.97;13.43;;;2.70;58.50;;;;;;5009682;28;39086;-74
2021/01/05 08:55:53;;;;;;;25.37;13.90;;;2.60;58.50;;;;;;5012715;28;40663;-74
2021/01/05 08:58:20;;;;;;;24.63;14.27;;;2.60;58.30;;;;;;5011889;28;39049;-77
2021/01/05 09:00:47;;;;;;;26.47;14.83;;;2.60;59.10;;;;;;4997020;28;38118;-77
2021/01/05 09:03:14;;;;;;;25.00;13.43;;;2.80;59.60;;;;;;4992266;28;37263;-78
2021/01/05 09:05:41;;;;;;;26.67;14.80;;;2.90;59.40;;;;;;5007199;28;39711;-77
2021/01/05 09:08:11;;;;;;;26.80;14.40;;;3.00;59.10;;;;;;5009587;28;39456;-77
2021/01/05 09:10:38;;;;;;;33.20;15.00;;;3.00;58.90;;;;;;5009033;28;38946;-77
2021/01/05 09:13:08;;;;;;;24.17;13.47;;;3.00;58.60;;;;;;4997299;28;36202;-77
2021/01/05 09:15:35;;;;;;;27.00;15.50;;;3.00;58.60;;;;;;4998733;28;38599;-78
2021/01/05 09:18:03;;;;;;;24.67;15.20;;;3.10;58.50;;;;;;5011832;28;39324;-76
2021/01/05 09:20:30;;;;;;;21.30;13.53;;;3.10;58.30;;;;;;5009401;28;38011;-77
2021/01/05 09:22:57;;;;;;;22.53;13.60;;;3.10;58.10;;;;;;5009560;28;37462;-77
2021/01/05 09:25:24;;;;;;;22.07;13.60;;;3.10;58.00;;;;;;5013450;28;39917;-76
2021/01/05 09:27:52;;;;;;;23.57;13.40;;;3.20;58.20;;;;;;5011118;28;38859;-76
2021/01/05 09:30:21;;;;;;;29.87;14.27;;;3.20;58.00;;;;;;5013160;28;38088;-77
2021/01/05 09:32:48;;;;;;;19.63;12.30;;;3.20;58.00;;;;;;5014733;28;37459;-76
2021/01/05 09:35:16;;;;;;;21.30;13.47;;;3.30;58.00;;;;;;5014293;28;39724;-77
2021/01/05 09:37:44;;;;;;;24.30;14.40;;;3.30;57.80;;;;;;5005682;28;39413;-78
2021/01/05 09:40:13;;;;;;;25.83;14.20;;;3.30;57.80;;;;;;5002835;28;37723;-78
2021/01/05 09:42:40;;;;;;;27.30;15.00;;;3.30;57.40;;;;;;5007255;28;38482;-78
2021/01/05 09:45:09;;;;;;;26.47;14.80;;;3.30;57.40;;;;;;5004526;28;40479;-77
2021/01/05 09:47:37;;;;;;;25.40;15.00;;;3.30;57.40;;;;;;4992914;28;37667;-78
2021/01/05 09:50:06;;;;;;;26.47;14.07;;;3.30;57.40;;;;;;5008070;28;38324;-78
2021/01/05 09:52:34;;;;;;;24.43;14.57;;;3.30;57.10;;;;;;5007973;28;37388;-78
2021/01/05 09:55:03;;;;;;;24.03;13.93;;;3.30;57.30;;;;;;4992771;28;38624;-77
2021/01/05 09:57:30;;;;;;;21.77;14.10;;;3.40;57.20;;;;;;5013425;28;39437;-78
2021/01/05 09:59:57;;;;;;;21.60;13.87;;;3.40;57.20;;;;;;5008251;28;38312;-78
2021/01/05 10:02:24;;;;;;;25.47;14.90;;;3.50;57.30;;;;;;5010298;28;37425;-78
2021/01/05 10:04:52;;;;;;;26.23;14.63;;;3.50;57.30;;;;;;4992786;28;38466;-78
2021/01/05 10:07:23;;;;;;;28.67;13.80;;;3.50;57.20;;;;;;5015841;28;38543;-78
2021/01/05 10:09:50;;;;;;;26.43;15.07;;;3.50;56.90;;;;;;4989566;28;36736;-78
2021/01/05 10:12:17;;;;;;;25.67;15.40;;;3.50;56.70;;;;;;5007485;28;37363;-77
2021/01/05 10:14:44;;;;;;;25.63;14.90;;;3.50;56.70;;;;;;5009201;28;39714;-77
2021/01/05 10:17:11;;;;;;;26.60;14.63;;;3.50;56.50;;;;;;5010159;28;39027;-76
2021/01/05 10:19:40;;;;;;;28.00;15.17;;;3.50;56.10;;;;;;5010806;28;36747;-77
2021/01/05 10:22:08;;;;;;;25.90;15.07;;;3.50;56.00;;;;;;5011005;28;38279;-76
2021/01/05 10:24:35;;;;;;;24.83;15.00;;;3.50;56.00;;;;;;5012092;28;40461;-78
2021/01/05 10:27:02;;;;;;;25.17;14.17;;;3.50;56.10;;;;;;5012916;28;39100;-77
2021/01/05 10:29:29;;;;;;;24.93;15.20;;;3.50;56.20;;;;;;4993681;28;36436;-76
2021/01/05 10:31:58;;;;;;;29.87;16.87;;;3.60;56.10;;;;;;5012019;28;38108;-76
2021/01/05 10:34:26;;;;;;;30.60;19.80;;;3.60;56.10;;;;;;5013000;28;40581;-77
2021/01/05 10:36:53;;;;;;;29.40;17.87;;;3.70;56.20;;;;;;5012082;28;39091;-76
2021/01/05 10:39:22;;;;;;;23.13;14.70;;;3.80;56.30;;;;;;5008702;28;38315;-77
2021/01/05 10:41:49;;;;;;;27.73;15.20;;;3.80;56.40;;;;;;5009951;28;37755;-78
2021/01/05 10:44:20;;;;;;;25.33;15.20;;;3.90;56.10;;;;;;5015650;28;40740;-77
2021/01/05 10:46:47;;;;;;;27.00;14.50;;;3.90;56.00;;;;;;5005798;28;39266;-77
2021/01/05 10:49:16;;;;;;;27.93;15.40;;;4.00;55.90;;;;;;5007086;28;38841;-77
2021/01/05 10:51:48;;;;;;;26.33;15.03;;;4.10;55.90;;;;;;5009156;28;37412;-77
2021/01/05 10:54:18;;;;;;;24.40;13.93;;;4.10;55.80;;;;;;5005348;28;40552;-77
2021/01/05 10:56:55;;;;;;;29.30;15.23;;;4.10;55.40;;;;;;5008586;28;39763;-76
2021/01/05 10:59:23;;;;;;;24.53;15.70;;;4.10;55.40;;;;;;5006631;28;39051;-77
2021/01/05 11:01:50;;;;;;;20.17;14.23;;;4.20;55.40;;;;;;4984496;28;38099;-78
2021/01/05 11:04:17;;;;;;;23.00;14.30;;;4.10;55.50;;;;;;4989697;28;38395;-77
2021/01/05 11:06:52;;;;;;;23.33;14.80;;;4.10;55.30;;;;;;5003720;28;39854;-76
2021/01/05 11:09:22;;;;;;;25.60;15.47;;;4.10;55.20;;;;;;5006352;28;38717;-76
2021/01/05 11:11:57;;;;;;;25.07;16.00;;;4.00;55.20;;;;;;4987959;28;37417;-77
2021/01/05 11:14:24;;;;;;;25.80;17.00;;;4.00;55.30;;;;;;4980220;28;39897;-77
2021/01/05 11:16:51;;;;;;;26.00;15.27;;;4.00;55.40;;;;;;5011761;28;39221;-76
2021/01/05 11:19:19;;;;;;;27.63;14.93;;;4.00;55.50;;;;;;5011584;28;38250;-77
2021/01/05 11:21:50;;;;;;;22.67;14.23;;;4.10;55.70;;;;;;5012090;28;36346;-76
2021/01/05 11:24:18;;;;;;;26.43;14.47;;;4.20;55.70;;;;;;5006844;28;39097;-76
2021/01/05 11:26:45;;;;;;;26.50;15.90;;;4.20;55.60;;;;;;5016144;28;40327;-76
2021/01/05 11:29:13;;;;;;;25.67;14.10;;;4.20;55.40;;;;;;5012961;28;38289;-76
2021/01/05 11:31:40;;;;;;;25.53;15.70;;;4.30;55.60;;;;;;4996058;28;37225;-77
2021/01/05 11:34:07;;;;;;;28.90;17.40;;;4.30;55.50;;;;;;5021572;28;39824;-77
2021/01/05 11:36:34;;;;;;;25.60;16.27;;;4.30;55.40;;;;;;4994050;28;39460;-76
2021/01/05 11:39:05;;;;;;;27.03;15.13;;;4.20;55.30;;;;;;5011778;28;38859;-76
2021/01/05 11:41:34;;;;;;;25.70;15.30;;;4.20;55.60;;;;;;5007809;28;37364;-77
2021/01/05 11:44:02;;;;;;;30.27;16.90;;;4.10;55.70;;;;;;5014427;28;38890;-76
2021/01/05 11:46:30;;;;;;;29.67;14.83;;;4.20;55.80;;;;;;4998998;28;38196;-77
2021/01/05 11:49:00;;;;;;;28.63;15.23;;;4.10;55.90;;;;;;5000183;28;20517;-77
2021/01/05 11:51:29;;;;;;;24.60;15.40;;;4.10;56.10;;;;;;5025384;28;37446;-77
2021/01/05 11:53:56;;;;;;;23.07;14.57;;;4.10;56.20;;;;;;5029687;28;39669;-76
2021/01/05 11:56:25;;;;;;;24.37;15.90;;;4.20;56.10;;;;;;4998087;28;38875;-76
2021/01/05 11:58:53;;;;;;;28.03;15.53;;;4.20;56.10;;;;;;5000834;28;37007;-76
2021/01/05 12:01:20;;;;;;;26.40;16.17;;;4.20;56.10;;;;;;5002991;28;37460;-78
2021/01/05 12:03:48;;;;;;;29.10;16.53;;;4.10;56.40;;;;;;5017509;28;40292;-77
2021/01/05 12:06:17;;;;;;;28.43;15.37;;;4.20;56.60;;;;;;4999024;28;38931;-78
2021/01/05 12:08:45;;;;;;;24.53;15.43;;;4.20;56.60;;;;;;4989197;28;37869;-77
2021/01/05 12:11:18;;;;;;;25.80;15.20;;;4.20;56.70;;;;;;5013838;28;37297;-78
2021/01/05 12:13:47;;;;;;;25.40;14.93;;;4.30;56.70;;;;;;5012021;28;37493;-78
2021/01/05 12:16:25;;;;;;;27.23;14.40;;;4.30;56.50;;;;;;5010777;28;38922;-78
2021/01/05 12:18:53;;;;;;;27.37;15.03;;;4.30;56.30;;;;;;4999367;28;39029;-78
2021/01/05 12:21:25;;;;;;;25.67;15.00;;;4.30;56.20;;;;;;5014260;28;38293;-78
2021/01/05 12:23:53;;;;;;;28.80;17.10;;;4.30;56.10;;;;;;5012405;28;39749;-75
2021/01/05 12:26:29;;;;;;;28.10;15.57;;;4.30;56.10;;;;;;5011805;28;38902;-77
2021/01/05 12:28:57;;;;;;;27.93;15.03;;;4.20;55.90;;;;;;5006936;28;38641;-77
2021/01/05 12:31:26;;;;;;;27.93;16.50;;;4.20;56.10;;;;;;5012286;28;37379;-76
2021/01/05 12:33:55;;;;;;;26.67;16.00;;;4.20;56.20;;;;;;4995528;28;39480;-76
2021/01/05 12:36:27;;;;;;;25.83;14.80;;;4.20;56.20;;;;;;5009998;28;39091;-76
2021/01/05 12:38:55;;;;;;;26.33;16.10;;;4.10;56.10;;;;;;4993356;28;36727;-76
2021/01/05 12:41:23;;;;;;;28.83;18.23;;;4.10;56.20;;;;;;5003584;28;37586;-76
2021/01/05 12:43:50;;;;;;;25.00;14.77;;;4.10;56.50;;;;;;5017605;28;40439;-77
2021/01/05 12:46:30;;;;;;;26.80;14.93;;;4.10;56.50;;;;;;4994708;28;39138;-77
2021/01/05 12:49:04;;;;;;;26.37;15.40;;;4.00;56.20;;;;;;4996669;28;38382;-78
2021/01/05 12:51:33;;;;;;;29.00;16.30;;;3.90;56.20;;;;;;5002545;28;38056;-78
2021/01/05 12:54:00;;;;;;;28.47;14.50;;;3.90;56.20;;;;;;5007625;28;39819;-77
2021/01/05 12:56:28;;;;;;;25.83;15.57;;;3.80;56.70;;;;;;4989094;28;38110;-77
2021/01/05 12:58:55;;;;;;;28.73;16.60;;;3.80;57.50;;;;;;5013892;28;38680;-77
2021/01/05 13:01:23;;;;;;;29.20;17.20;;;3.80;57.00;;;;;;5019749;28;37566;-77
2021/01/05 13:03:50;;;;;;;28.90;16.30;;;3.70;57.00;;;;;;5017594;28;40474;-77
2021/01/05 13:06:21;;;;;;;29.83;17.43;;;3.60;57.10;;;;;;4989455;28;37623;-78
2021/01/05 13:08:50;;;;;;;27.93;16.23;;;3.70;57.30;;;;;;5007043;28;38813;-78
2021/01/05 13:11:22;;;;;;;29.90;16.47;;;3.70;57.50;;;;;;5008837;28;36860;-78